Time;durP1;ratioP1;P1;durP2;ratioP2;P2;SDS_P1;SDS_P2;PMS_P1;PMS_P2;Temp;Humidity;BMP_temperature;BMP_pressure;BME280_temperature;BME280_humidity;BME280_pressure;Samples;Min_cycle;Max_cycle;Signal;HPM_P1;HPM_P2
2023/05/15 00:00:57;;;;;;;3.15;0.73;;;15.20;96.70;;;;;;4946818;28;20065;-73
2023/05/15 02:35:31;;;;;;;1.85;0.70;;;14.20;96.70;;;;;;4959843;28;20202;-73
2023/05/15 02:38:06;;;;;;;1.58;0.60;;;14.20;96.70;;;;;;4970384;28;20038;-74
2023/05/15 02:40:36;;;;;;;2.35;0.73;;;14.20;96.70;;;;;;4958666;28;20050;-74
2023/05/15 04:08:26;;;;;;;1.00;0.35;;;14.10;96.70;;;;;;4932059;28;20587;-73
2023/05/15 04:10:57;;;;;;;4.03;0.50;;;14.20;96.70;;;;;;4934488;29;20065;-72
2023/05/15 04:13:26;;;;;;;1.25;0.50;;;14.10;96.70;;;;;;4914470;29;20050;-72
2023/05/15 04:15:55;;;;;;;2.38;0.60;;;14.00;96.70;;;;;;4935252;29;20142;-73
2023/05/15 04:22:42;;;;;;;0.95;0.50;;;14.20;96.70;;;;;;4942980;29;20429;-73
2023/05/15 04:25:13;;;;;;;1.40;0.60;;;13.90;96.70;;;;;;4942775;29;20050;-73
2023/05/15 04:27:45;;;;;;;5.65;0.88;;;13.80;96.70;;;;;;4938468;29;20067;-72
2023/05/15 04:30:15;;;;;;;1.55;0.50;;;13.70;96.70;;;;;;4936256;29;20055;-72
2023/05/15 04:37:01;;;;;;;2.15;0.47;;;13.80;96.70;;;;;;4941821;29;20085;-73
2023/05/15 04:39:32;;;;;;;1.75;0.50;;;14.00;96.70;;;;;;4938599;29;20058;-73
2023/05/15 04:42:07;;;;;;;1.60;0.75;;;14.00;96.70;;;;;;4938974;29;20051;-73
2023/05/15 04:44:38;;;;;;;1.60;0.77;;;13.90;96.70;;;;;;4919199;29;20142;-72
2023/05/15 04:47:06;;;;;;;2.35;0.75;;;13.80;96.70;;;;;;4937055;29;20154;-72
2023/05/15 04:49:34;;;;;;;2.83;1.10;;;13.80;96.70;;;;;;4942379;29;20094;-72
2023/05/15 04:52:02;;;;;;;3.70;1.30;;;13.80;96.70;;;;;;4935218;28;20043;-73
2023/05/15 04:54:31;;;;;;;3.50;1.55;;;13.70;96.70;;;;;;4941273;29;20113;-73
2023/05/15 04:56:59;;;;;;;4.63;1.90;;;13.90;96.70;;;;;;4940652;29;20052;-73
2023/05/15 04:59:27;;;;;;;4.60;1.65;;;13.90;96.70;;;;;;4941750;29;20071;-72
2023/05/15 05:01:57;;;;;;;2.58;1.90;;;13.90;96.70;;;;;;4943200;29;20057;-72
2023/05/15 05:04:25;;;;;;;3.53;1.65;;;13.80;96.70;;;;;;4944484;29;20820;-72
2023/05/15 05:06:53;;;;;;;3.67;1.17;;;13.90;96.70;;;;;;4937448;28;20044;-72
2023/05/15 05:09:21;;;;;;;4.85;1.63;;;13.90;96.70;;;;;;4950826;28;20066;-72
2023/05/15 05:11:49;;;;;;;4.18;1.55;;;14.10;96.70;;;;;;4964096;28;20043;-73
2023/05/15 05:14:19;;;;;;;3.08;1.30;;;14.10;96.70;;;;;;4965371;28;20121;-73
2023/05/15 05:16:47;;;;;;;7.68;1.27;;;14.20;96.70;;;;;;4945545;28;20157;-72
2023/05/15 05:19:17;;;;;;;1.92;1.30;;;14.30;96.70;;;;;;4951531;28;20062;-72
2023/05/15 05:21:45;;;;;;;3.35;1.42;;;14.20;96.70;;;;;;4960964;28;20050;-73
2023/05/15 05:24:13;;;;;;;3.55;1.27;;;14.30;96.70;;;;;;4963327;28;20102;-73
2023/05/15 05:26:43;;;;;;;1.50;0.93;;;14.30;96.70;;;;;;4975497;28;20122;-72
2023/05/15 05:29:11;;;;;;;2.20;1.10;;;14.40;96.70;;;;;;4951427;28;20062;-73
2023/05/15 05:31:40;;;;;;;2.33;0.82;;;14.50;96.70;;;;;;4970269;28;20047;-73
2023/05/15 05:34:08;;;;;;;2.10;0.80;;;14.60;96.70;;;;;;4959245;28;20046;-73
2023/05/15 05:36:38;;;;;;;2.65;0.70;;;14.60;96.70;;;;;;4967572;28;20047;-73
2023/05/15 05:39:06;;;;;;;4.35;0.90;;;14.70;96.70;;;;;;4931799;28;20675;-73
2023/05/15 05:41:34;;;;;;;2.30;0.98;;;14.70;96.70;;;;;;4949825;28;20050;-73
2023/05/15 05:44:02;;;;;;;4.38;0.90;;;14.70;96.70;;;;;;4966699;28;20050;-73
2023/05/15 05:46:30;;;;;;;5.90;0.90;;;14.70;96.70;;;;;;4978763;28;20050;-72
2023/05/15 05:48:59;;;;;;;2.05;0.70;;;14.80;96.70;;;;;;4946474;28;20047;-72
2023/05/15 05:51:27;;;;;;;2.53;0.90;;;14.80;96.70;;;;;;4950139;28;20801;-72
2023/05/15 05:53:56;;;;;;;1.83;0.70;;;14.80;96.70;;;;;;4969713;28;20097;-72
2023/05/15 05:56:25;;;;;;;1.13;0.52;;;14.80;96.70;;;;;;4978987;28;20057;-72
2023/05/15 05:58:55;;;;;;;1.55;0.50;;;14.80;96.70;;;;;;4968668;28;20049;-73
2023/05/15 06:01:23;;;;;;;1.88;0.57;;;14.80;96.70;;;;;;4955889;28;20134;-73
2023/05/15 06:03:51;;;;;;;2.35;0.80;;;14.90;96.70;;;;;;4934311;28;20390;-73
2023/05/15 06:06:19;;;;;;;2.15;0.80;;;14.80;96.70;;;;;;4974935;28;20051;-72
2023/05/15 06:08:47;;;;;;;2.05;0.60;;;15.00;96.70;;;;;;4966540;28;20074;-72
2023/05/15 06:11:18;;;;;;;1.35;0.60;;;15.00;96.70;;;;;;4981433;28;20041;-72
2023/05/15 06:13:46;;;;;;;3.92;0.80;;;15.10;96.70;;;;;;4972558;28;20082;-72
2023/05/15 06:16:14;;;;;;;1.73;0.68;;;15.20;96.70;;;;;;4959944;28;20050;-72
2023/05/15 06:18:42;;;;;;;1.42;0.70;;;15.20;96.70;;;;;;4948821;28;20508;-73
2023/05/15 06:21:10;;;;;;;1.73;1.15;;;15.20;96.70;;;;;;4949723;28;20046;-73
2023/05/15 06:23:38;;;;;;;2.10;0.93;;;15.20;96.70;;;;;;4962539;28;20055;-73
2023/05/15 06:26:06;;;;;;;2.75;1.63;;;15.20;96.70;;;;;;4964873;28;20077;-73
2023/05/15 06:28:36;;;;;;;4.18;2.17;;;15.30;96.70;;;;;;4962857;28;20500;-74
2023/05/15 06:31:04;;;;;;;4.80;2.05;;;15.30;96.70;;;;;;4959495;28;20507;-73
2023/05/15 06:33:33;;;;;;;5.18;2.45;;;15.30;96.70;;;;;;4949553;28;20046;-73
2023/05/15 06:36:01;;;;;;;8.73;3.40;;;15.40;96.70;;;;;;4966082;28;20070;-73
2023/05/15 06:38:29;;;;;;;4.22;2.85;;;15.40;96.70;;;;;;4960812;28;20397;-73
2023/05/15 06:40:57;;;;;;;5.55;2.25;;;15.40;96.70;;;;;;4964088;28;20109;-74
2023/05/15 06:43:26;;;;;;;2.75;1.73;;;15.50;96.70;;;;;;4948009;28;20047;-73
2023/05/15 06:45:55;;;;;;;5.05;1.98;;;15.60;96.70;;;;;;4960643;28;20071;-73
2023/05/15 06:48:23;;;;;;;3.25;1.58;;;15.70;96.70;;;;;;4976424;28;20042;-73
2023/05/15 06:50:52;;;;;;;3.60;1.45;;;15.80;96.70;;;;;;4965675;28;20038;-73
2023/05/15 06:53:20;;;;;;;3.53;1.73;;;15.90;96.70;;;;;;4955658;28;20121;-74
2023/05/15 06:55:48;;;;;;;4.93;1.30;;;15.90;96.70;;;;;;4964800;28;20051;-74
2023/05/15 06:58:16;;;;;;;2.70;1.00;;;16.00;96.70;;;;;;4948961;28;20525;-74
2023/05/15 07:00:45;;;;;;;1.27;0.70;;;16.00;96.70;;;;;;4970090;28;20579;-74
2023/05/15 07:03:15;;;;;;;1.38;0.68;;;16.10;96.70;;;;;;4963580;28;20570;-74
2023/05/15 07:05:44;;;;;;;2.20;0.80;;;16.10;96.70;;;;;;4974655;28;20053;-73
2023/05/15 07:08:12;;;;;;;2.53;0.88;;;16.10;96.70;;;;;;4968976;28;20039;-74
2023/05/15 07:10:40;;;;;;;1.50;0.75;;;16.10;96.70;;;;;;4967742;28;20043;-74
2023/05/15 07:13:09;;;;;;;4.80;1.02;;;16.20;96.70;;;;;;4932476;28;20061;-73
2023/05/15 07:15:38;;;;;;;2.92;1.00;;;16.20;96.70;;;;;;4932230;28;20055;-73
2023/05/15 07:18:06;;;;;;;2.63;0.70;;;16.20;96.70;;;;;;4965939;28;20074;-74
2023/05/15 07:20:36;;;;;;;3.00;0.80;;;16.30;96.70;;;;;;4980678;28;20042;-74
2023/05/15 07:23:04;;;;;;;3.38;0.80;;;16.40;96.70;;;;;;4957246;28;20229;-74
2023/05/15 07:25:32;;;;;;;1.05;0.60;;;16.40;96.70;;;;;;4973338;28;20619;-75
2023/05/15 07:28:01;;;;;;;9.20;1.60;;;16.50;96.70;;;;;;4930456;28;20367;-75
2023/05/15 07:30:29;;;;;;;4.85;0.88;;;16.60;96.70;;;;;;4967434;28;20035;-74
2023/05/15 07:32:57;;;;;;;1.75;0.55;;;16.70;96.70;;;;;;4965708;28;20070;-73
2023/05/15 07:35:25;;;;;;;1.25;0.55;;;16.80;96.70;;;;;;4962081;28;20046;-74
2023/05/15 07:37:55;;;;;;;2.10;0.50;;;16.90;96.70;;;;;;4946605;28;20057;-72
2023/05/15 07:40:23;;;;;;;1.42;0.60;;;16.90;96.70;;;;;;4964990;28;20070;-73
2023/05/15 07:42:51;;;;;;;1.80;0.85;;;16.90;96.70;;;;;;4953389;28;20041;-73
2023/05/15 07:45:20;;;;;;;1.95;0.77;;;16.90;96.70;;;;;;4956000;28;20566;-73
2023/05/15 07:47:49;;;;;;;1.10;0.50;;;16.90;96.70;;;;;;4967160;28;20043;-73
2023/05/15 07:50:17;;;;;;;2.88;0.60;;;16.90;96.70;;;;;;4973460;28;20615;-73
2023/05/15 07:52:45;;;;;;;0.85;0.50;;;17.00;96.70;;;;;;4973304;28;20050;-72
2023/05/15 07:55:15;;;;;;;1.10;0.47;;;17.00;96.70;;;;;;4974627;28;20050;-73
2023/05/15 07:57:44;;;;;;;1.60;0.65;;;17.00;96.70;;;;;;4966196;28;20051;-74
2023/05/15 08:00:13;;;;;;;1.15;0.32;;;17.00;96.70;;;;;;4967137;28;20104;-72
2023/05/15 08:02:44;;;;;;;2.60;0.52;;;17.20;96.70;;;;;;4963899;28;20038;-73
2023/05/15 08:05:13;;;;;;;3.08;0.52;;;17.40;96.70;;;;;;4964543;28;20101;-72
2023/05/15 08:07:41;;;;;;;3.03;0.47;;;17.60;96.70;;;;;;4948831;28;20058;-71
2023/05/15 08:10:10;;;;;;;1.40;0.50;;;17.80;96.70;;;;;;4974464;28;21233;-72
2023/05/15 08:12:44;;;;;;;0.95;0.50;;;17.90;96.70;;;;;;4970314;28;20054;-71
2023/05/15 08:15:13;;;;;;;2.83;0.60;;;17.90;96.70;;;;;;4972361;28;20133;-71
2023/05/15 08:17:41;;;;;;;0.88;0.30;;;17.90;96.70;;;;;;4949040;28;20716;-71
2023/05/15 08:20:10;;;;;;;1.98;0.40;;;18.10;96.70;;;;;;4974255;28;20104;-71
2023/05/15 08:22:38;;;;;;;1.42;0.50;;;18.30;96.70;;;;;;4972178;28;20523;-72
2023/05/15 08:25:08;;;;;;;0.95;0.40;;;18.40;96.70;;;;;;4960631;28;20055;-71
2023/05/15 08:27:36;;;;;;;1.48;0.60;;;18.60;96.70;;;;;;4930874;28;20162;-72
2023/05/15 08:30:07;;;;;;;1.67;0.30;;;18.60;96.70;;;;;;4964730;28;20046;-72
2023/05/15 08:32:35;;;;;;;0.88;0.40;;;18.40;96.70;;;;;;4962146;28;20126;-72
2023/05/15 08:35:07;;;;;;;2.78;0.60;;;18.20;96.70;;;;;;4971936;28;20181;-72
2023/05/15 08:37:35;;;;;;;1.90;0.55;;;18.20;96.70;;;;;;4965143;28;20083;-71
2023/05/15 08:40:06;;;;;;;0.95;0.43;;;18.20;96.70;;;;;;4953686;28;20039;-72
2023/05/15 08:42:42;;;;;;;1.38;0.30;;;18.20;96.70;;;;;;4937374;28;20452;-72
2023/05/15 08:45:12;;;;;;;0.57;0.30;;;18.20;96.70;;;;;;4932862;28;20056;-72
2023/05/15 08:47:42;;;;;;;1.42;0.40;;;18.20;96.70;;;;;;4979580;28;20039;-72
2023/05/15 08:50:13;;;;;;;2.05;0.73;;;18.10;96.70;;;;;;4944163;28;20038;-72
2023/05/15 08:52:42;;;;;;;3.00;0.85;;;18.10;96.70;;;;;;4956211;28;20101;-71
2023/05/15 08:55:10;;;;;;;1.50;0.60;;;18.20;96.70;;;;;;4970746;28;20058;-72
2023/05/15 08:57:39;;;;;;;1.33;0.50;;;18.20;96.70;;;;;;4924656;28;20047;-71
2023/05/15 09:00:08;;;;;;;1.00;0.40;;;18.20;96.70;;;;;;4964775;28;20670;-72
2023/05/15 09:02:38;;;;;;;1.98;0.55;;;18.30;96.70;;;;;;4936572;28;20042;-72
2023/05/15 09:05:08;;;;;;;1.52;0.85;;;18.30;96.70;;;;;;4949801;28;20110;-72
2023/05/15 09:07:38;;;;;;;1.73;0.50;;;18.30;96.70;;;;;;4955842;28;20046;-72
2023/05/15 09:10:08;;;;;;;1.67;0.45;;;18.40;96.70;;;;;;4938390;28;20082;-71
2023/05/15 09:12:42;;;;;;;2.30;0.40;;;18.60;96.70;;;;;;4964370;28;20144;-72
2023/05/15 09:15:12;;;;;;;2.00;0.77;;;18.80;96.70;;;;;;4959036;28;20047;-72
2023/05/15 09:17:42;;;;;;;2.53;0.60;;;18.90;96.70;;;;;;4968258;28;20047;-73
2023/05/15 09:20:25;;;;;;;1.48;0.60;;;18.90;96.70;;;;;;4968997;28;20050;-72
2023/05/15 09:22:54;;;;;;;1.35;1.00;;;18.90;96.70;;;;;;4952042;28;20051;-73
2023/05/15 09:25:38;;;;;;;2.15;0.70;;;18.90;96.70;;;;;;4966415;28;20680;-71
2023/05/15 09:28:08;;;;;;;1.38;1.13;;;19.00;96.70;;;;;;4955789;28;20042;-70
2023/05/15 09:30:37;;;;;;;3.97;1.30;;;19.00;96.70;;;;;;4933838;28;20043;-70
2023/05/15 09:33:08;;;;;;;1.38;0.60;;;19.10;96.70;;;;;;4970392;28;20050;-70
2023/05/15 09:35:38;;;;;;;1.13;0.70;;;19.10;96.70;;;;;;4943273;28;20054;-72
2023/05/15 09:38:09;;;;;;;1.33;0.85;;;19.20;96.70;;;;;;4964158;28;20053;-70
2023/05/15 09:40:41;;;;;;;1.55;0.70;;;19.30;96.70;;;;;;4943060;28;20061;-70
2023/05/15 09:43:10;;;;;;;1.77;0.60;;;19.20;96.70;;;;;;4980380;28;20145;-71
2023/05/15 09:45:39;;;;;;;2.17;0.68;;;19.30;96.70;;;;;;4959686;28;20043;-70
2023/05/15 09:48:10;;;;;;;0.90;0.60;;;19.40;96.70;;;;;;4960869;28;20109;-70
2023/05/15 09:50:40;;;;;;;1.75;0.63;;;19.60;96.70;;;;;;4949395;28;20047;-71
2023/05/15 09:53:11;;;;;;;1.40;0.50;;;19.70;96.70;;;;;;4968683;28;20046;-71
2023/05/15 09:55:42;;;;;;;1.42;0.63;;;19.80;96.70;;;;;;4955119;28;20051;-69
2023/05/15 09:58:12;;;;;;;2.03;0.60;;;19.80;96.70;;;;;;4963723;28;20051;-70
2023/05/15 10:00:41;;;;;;;1.90;0.47;;;19.70;96.70;;;;;;4969032;28;20400;-69
2023/05/15 10:03:19;;;;;;;2.97;0.60;;;19.80;96.70;;;;;;4976170;28;20066;-69
2023/05/15 10:05:48;;;;;;;1.17;0.80;;;20.00;96.70;;;;;;4965944;28;20062;-69
2023/05/15 10:08:26;;;;;;;0.90;0.60;;;20.00;96.70;;;;;;4935366;28;20053;-70
2023/05/15 10:10:58;;;;;;;2.25;0.60;;;19.90;96.70;;;;;;4965421;28;20149;-69
2023/05/15 10:13:29;;;;;;;0.80;0.32;;;19.80;96.70;;;;;;4974315;28;20065;-70
2023/05/15 10:15:57;;;;;;;1.33;0.60;;;19.70;96.70;;;;;;4957346;28;21624;-69
2023/05/15 10:18:32;;;;;;;1.42;0.60;;;19.90;96.70;;;;;;4949451;28;20047;-69
2023/05/15 10:21:03;;;;;;;2.22;0.50;;;20.10;96.70;;;;;;4968381;28;20047;-70
2023/05/15 10:23:33;;;;;;;1.33;0.40;;;20.30;96.70;;;;;;4966886;28;20051;-70
2023/05/15 10:26:05;;;;;;;1.08;0.60;;;20.60;96.70;;;;;;4949272;28;20046;-70
2023/05/15 10:28:35;;;;;;;0.50;0.40;;;20.70;96.70;;;;;;4970180;28;20073;-70
2023/05/15 10:31:04;;;;;;;1.20;0.40;;;20.80;96.70;;;;;;4973002;28;20146;-70
2023/05/15 10:33:36;;;;;;;1.23;0.35;;;21.00;96.70;;;;;;4973945;28;20043;-70
2023/05/15 10:36:05;;;;;;;0.77;0.30;;;21.10;96.70;;;;;;4955329;28;20047;-70
2023/05/15 10:38:35;;;;;;;1.15;0.40;;;21.20;96.70;;;;;;4959181;28;20054;-70
2023/05/15 10:41:06;;;;;;;3.53;0.68;;;21.00;96.70;;;;;;4966811;28;20053;-70
2023/05/15 10:43:45;;;;;;;2.00;0.55;;;21.00;96.70;;;;;;4966983;28;20046;-70
2023/05/15 10:46:15;;;;;;;0.40;0.40;;;21.00;96.70;;;;;;4974452;28;20067;-69
2023/05/15 10:48:44;;;;;;;1.40;0.52;;;21.10;96.70;;;;;;4961071;28;20122;-70
2023/05/15 10:51:17;;;;;;;1.05;0.40;;;21.20;96.70;;;;;;4984252;28;20043;-70
2023/05/15 10:53:45;;;;;;;1.73;0.35;;;21.50;96.70;;;;;;4974759;28;20047;-70
2023/05/15 10:56:18;;;;;;;1.52;0.50;;;21.70;96.70;;;;;;4966095;28;20070;-70
2023/05/15 10:58:47;;;;;;;0.82;0.35;;;22.00;96.70;;;;;;4965132;28;20046;-70
2023/05/15 11:01:27;;;;;;;1.42;0.50;;;22.00;96.70;;;;;;4968954;28;20039;-70
2023/05/15 11:04:11;;;;;;;1.63;0.40;;;21.90;96.70;;;;;;4953631;28;20081;-69
2023/05/15 11:06:41;;;;;;;2.25;0.43;;;22.00;96.70;;;;;;4974671;28;20054;-69
2023/05/15 11:09:34;;;;;;;1.15;0.35;;;22.20;96.70;;;;;;4973544;28;20137;-70
2023/05/15 11:12:04;;;;;;;2.17;0.68;;;22.70;96.70;;;;;;4966041;28;20782;-70
2023/05/15 11:14:33;;;;;;;1.27;0.40;;;22.90;96.70;;;;;;4941072;28;20137;-70
2023/05/15 11:17:03;;;;;;;1.10;0.40;;;22.70;96.70;;;;;;4947084;28;20738;-70
2023/05/15 11:19:53;;;;;;;1.30;0.30;;;22.80;96.70;;;;;;4968483;28;20046;-70
2023/05/15 11:22:25;;;;;;;1.95;0.50;;;22.60;96.70;;;;;;4976357;28;20121;-69
2023/05/15 11:24:58;;;;;;;0.85;0.40;;;22.20;96.70;;;;;;4973094;28;20376;-70
2023/05/15 11:27:28;;;;;;;0.60;0.40;;;22.40;96.70;;;;;;4961654;28;20469;-70
2023/05/15 11:30:11;;;;;;;2.22;0.40;;;22.70;96.70;;;;;;4973221;28;20390;-71
2023/05/15 11:32:54;;;;;;;0.77;0.35;;;23.00;96.70;;;;;;4973122;28;20461;-70
2023/05/15 11:35:30;;;;;;;1.02;0.40;;;23.10;96.70;;;;;;4946606;28;20066;-71
2023/05/15 11:38:00;;;;;;;0.43;0.20;;;23.30;96.70;;;;;;4971261;28;20058;-71
2023/05/15 11:40:30;;;;;;;2.70;0.57;;;23.60;96.70;;;;;;4966292;28;20038;-72
2023/05/15 11:43:07;;;;;;;0.25;0.25;;;24.10;96.70;;;;;;4947068;28;20082;-72
2023/05/15 11:45:35;;;;;;;;;;;24.00;96.70;;;;;;4962889;28;20090;-71
2023/05/15 11:48:07;;;;;;;1.98;0.40;;;23.60;96.70;;;;;;4975306;28;19933;-72
2023/05/15 11:50:37;;;;;;;1.42;0.30;;;23.60;96.70;;;;;;4963723;28;20142;-71
2023/05/15 11:53:07;;;;;;;0.50;0.30;;;23.60;96.70;;;;;;4968766;28;20050;-70
2023/05/15 11:55:38;;;;;;;1.38;0.50;;;23.50;96.70;;;;;;4945464;28;20595;-71
2023/05/15 11:58:12;;;;;;;3.58;0.50;;;23.20;96.70;;;;;;4967058;28;20120;-70
2023/05/15 12:00:42;;;;;;;2.33;0.38;;;22.90;96.70;;;;;;4953269;28;20102;-71
2023/05/15 12:03:19;;;;;;;1.63;0.40;;;22.80;96.70;;;;;;4967127;28;20046;-71
2023/05/15 12:05:50;;;;;;;0.65;0.40;;;23.20;96.70;;;;;;4980520;28;20385;-72
2023/05/15 12:08:32;;;;;;;1.15;0.40;;;23.70;96.70;;;;;;4973738;28;20043;-72
2023/05/15 12:11:01;;;;;;;0.68;0.28;;;23.70;96.70;;;;;;4948358;28;20054;-70
2023/05/15 12:13:31;;;;;;;0.25;0.22;;;23.80;96.70;;;;;;4965516;28;20035;-71
2023/05/15 12:16:00;;;;;;;1.55;0.30;;;23.90;96.70;;;;;;4963567;28;20054;-71
2023/05/15 12:18:30;;;;;;;2.55;0.43;;;24.30;96.70;;;;;;4973798;28;20057;-71
2023/05/15 12:21:00;;;;;;;0.68;0.32;;;24.60;96.70;;;;;;4956847;28;20054;-71
2023/05/15 12:23:29;;;;;;;0.50;0.30;;;24.70;96.70;;;;;;4933966;29;20055;-71
2023/05/15 12:25:59;;;;;;;4.05;0.50;;;24.80;96.70;;;;;;4963585;28;20042;-71
2023/05/15 12:28:29;;;;;;;0.57;0.43;;;24.60;96.70;;;;;;4945188;28;20046;-71
2023/05/15 12:30:58;;;;;;;1.17;0.32;;;24.30;96.70;;;;;;4978006;28;20516;-71
2023/05/15 12:33:26;;;;;;;0.85;0.20;;;24.00;96.70;;;;;;4960546;28;20081;-71
2023/05/15 12:35:56;;;;;;;0.80;0.30;;;23.30;96.70;;;;;;4964107;28;20046;-70
2023/05/15 12:38:32;;;;;;;0.52;0.30;;;23.20;96.70;;;;;;4947401;28;20050;-70
2023/05/15 12:41:01;;;;;;;0.68;0.30;;;23.00;96.70;;;;;;4944766;28;20053;-71
2023/05/15 12:43:30;;;;;;;4.38;0.35;;;23.00;96.70;;;;;;4967226;28;20077;-70
2023/05/15 12:45:59;;;;;;;3.00;0.40;;;23.30;96.70;;;;;;4982159;28;20042;-70
2023/05/15 12:48:31;;;;;;;3.22;0.30;;;23.60;96.70;;;;;;4980243;28;20042;-71
2023/05/15 12:51:06;;;;;;;3.17;0.35;;;23.60;96.70;;;;;;4963331;28;20050;-71
2023/05/15 12:53:38;;;;;;;0.40;0.20;;;23.60;96.70;;;;;;4945568;28;20054;-71
2023/05/15 12:56:08;;;;;;;4.25;0.40;;;23.50;96.70;;;;;;4966551;28;20034;-71
2023/05/15 12:58:37;;;;;;;1.73;0.30;;;23.60;96.70;;;;;;4977086;28;20046;-70
2023/05/15 13:01:06;;;;;;;1.08;0.25;;;23.50;96.70;;;;;;4952026;28;20109;-71
2023/05/15 13:03:35;;;;;;;1.33;0.30;;;23.60;96.70;;;;;;4963468;28;20137;-71
2023/05/15 13:06:06;;;;;;;2.55;0.50;;;23.90;96.70;;;;;;4964504;28;20047;-71
2023/05/15 13:08:40;;;;;;;4.03;0.60;;;24.10;96.70;;;;;;4964380;28;20568;-70
2023/05/15 13:11:12;;;;;;;3.08;0.40;;;24.40;96.70;;;;;;4962885;28;20047;-70
2023/05/15 13:13:43;;;;;;;0.57;0.32;;;24.50;96.70;;;;;;4956021;28;20576;-71
2023/05/15 13:16:20;;;;;;;2.58;0.60;;;24.30;96.70;;;;;;4963238;28;20050;-70
2023/05/15 13:18:48;;;;;;;;;;;24.20;96.70;;;;;;4963191;28;20386;-71
2023/05/15 13:21:17;;;;;;;0.50;0.40;;;24.80;96.70;;;;;;4962189;28;19925;-71
2023/05/15 13:23:48;;;;;;;1.45;0.30;;;24.80;96.70;;;;;;4963215;28;20055;-71
2023/05/15 13:26:17;;;;;;;4.88;0.50;;;25.00;96.70;;;;;;4964120;28;20042;-71
2023/05/15 13:28:45;;;;;;;0.43;0.30;;;25.80;96.70;;;;;;4966972;28;20400;-70
2023/05/15 13:31:14;;;;;;;2.60;0.55;;;25.50;96.70;;;;;;4969142;28;20130;-71
2023/05/15 13:33:43;;;;;;;1.08;0.35;;;25.10;96.70;;;;;;4964088;28;20713;-71
2023/05/15 13:36:11;;;;;;;0.95;0.30;;;24.80;96.70;;;;;;4966142;28;20524;-71
2023/05/15 13:38:40;;;;;;;5.85;0.60;;;24.60;96.70;;;;;;4963529;28;20055;-71
2023/05/15 13:41:10;;;;;;;4.55;0.40;;;24.60;96.70;;;;;;4934440;28;20062;-70
2023/05/15 13:43:38;;;;;;;2.03;0.40;;;24.60;96.70;;;;;;4971366;28;20051;-71
2023/05/15 13:46:07;;;;;;;3.53;0.40;;;24.40;96.70;;;;;;4970736;28;20039;-70
2023/05/15 13:48:36;;;;;;;2.83;0.80;;;24.10;96.70;;;;;;4977650;28;20030;-73
2023/05/15 13:51:05;;;;;;;1.08;0.50;;;24.00;96.70;;;;;;4949573;28;20047;-71
2023/05/15 13:53:33;;;;;;;1.83;0.30;;;23.80;96.70;;;;;;4967400;28;20039;-72
2023/05/15 13:56:02;;;;;;;1.25;0.30;;;24.20;96.70;;;;;;4973304;28;20130;-71
2023/05/15 13:58:32;;;;;;;0.50;0.20;;;25.00;96.70;;;;;;4949191;28;20054;-75
2023/05/15 14:01:06;;;;;;;1.50;0.22;;;25.90;96.70;;;;;;4962403;28;20054;-70
2023/05/15 14:03:35;;;;;;;2.28;0.32;;;26.10;96.70;;;;;;4953099;28;20571;-70
2023/05/15 14:06:04;;;;;;;0.73;0.20;;;25.60;96.70;;;;;;4976286;28;20168;-71
2023/05/15 14:08:33;;;;;;;0.22;0.10;;;24.90;96.70;;;;;;4961139;28;20572;-70
2023/05/15 14:11:02;;;;;;;0.50;0.20;;;24.60;96.70;;;;;;4980518;28;20116;-69
2023/05/15 14:13:33;;;;;;;0.50;0.22;;;24.50;96.70;;;;;;4951751;28;20047;-70
2023/05/15 14:16:02;;;;;;;0.70;0.20;;;25.00;96.70;;;;;;4950972;28;20150;-70
2023/05/15 14:18:30;;;;;;;0.20;0.20;;;26.00;96.70;;;;;;4974864;28;20078;-70
2023/05/15 14:20:59;;;;;;;1.48;0.20;;;26.00;96.70;;;;;;4970304;28;20756;-70
2023/05/15 14:23:29;;;;;;;0.10;0.10;;;25.60;96.70;;;;;;4968931;28;20050;-70
2023/05/15 14:25:57;;;;;;;1.20;0.40;;;25.00;96.70;;;;;;4963813;28;20614;-70
2023/05/15 14:28:26;;;;;;;5.25;0.10;;;24.60;96.70;;;;;;4965506;28;20046;-70
2023/05/15 14:30:57;;;;;;;0.40;0.13;;;25.10;96.70;;;;;;4970443;28;20066;-70
2023/05/15 14:33:25;;;;;;;0.30;0.10;;;25.50;96.70;;;;;;4952814;28;20050;-69
2023/05/15 14:35:54;;;;;;;1.95;0.40;;;26.40;96.70;;;;;;4967288;28;20408;-70
2023/05/15 14:38:22;;;;;;;1.27;0.10;;;27.20;96.70;;;;;;4967480;28;20051;-71
2023/05/15 14:40:51;;;;;;;3.05;0.35;;;27.80;96.70;;;;;;4967178;28;20043;-71
2023/05/15 14:43:20;;;;;;;1.55;0.20;;;27.60;96.70;;;;;;4966894;28;20061;-70
2023/05/15 14:45:53;;;;;;;0.95;0.20;;;26.70;96.70;;;;;;4942266;28;20121;-70
2023/05/15 14:48:23;;;;;;;2.00;0.20;;;25.80;96.70;;;;;;4971717;28;20039;-69
2023/05/15 14:50:51;;;;;;;1.15;0.20;;;26.40;96.70;;;;;;4969498;28;20130;-70
2023/05/15 14:53:20;;;;;;;2.15;0.40;;;27.10;96.70;;;;;;4972818;28;20065;-69
2023/05/15 14:55:49;;;;;;;0.73;0.10;;;27.80;96.70;;;;;;4956419;28;20046;-70
2023/05/15 14:58:17;;;;;;;0.70;0.20;;;28.00;96.70;;;;;;4951595;28;20558;-71
2023/05/15 15:00:47;;;;;;;1.23;0.20;;;26.90;96.70;;;;;;4967753;28;20042;-69
2023/05/15 15:03:15;;;;;;;2.10;0.10;;;26.10;96.70;;;;;;4972414;28;20110;-73
2023/05/15 15:05:46;;;;;;;1.70;0.30;;;25.40;96.70;;;;;;4966979;28;20138;-71
2023/05/15 15:08:14;;;;;;;1.88;0.10;;;25.00;96.70;;;;;;4979038;28;20050;-71
2023/05/15 15:10:43;;;;;;;1.15;0.20;;;24.90;96.70;;;;;;4973422;28;20062;-72
2023/05/15 15:13:12;;;;;;;1.73;0.17;;;25.00;96.70;;;;;;4969872;28;20067;-70
2023/05/15 15:15:41;;;;;;;1.25;0.10;;;26.50;96.70;;;;;;4949298;28;20045;-72
2023/05/15 15:18:10;;;;;;;0.82;0.17;;;27.50;96.70;;;;;;4965207;28;20058;-72
2023/05/15 15:20:41;;;;;;;1.00;0.20;;;28.10;96.70;;;;;;4973361;28;20496;-71
2023/05/15 15:23:12;;;;;;;0.95;0.13;;;28.60;96.70;;;;;;4967083;28;20050;-71
2023/05/15 15:25:41;;;;;;;1.08;0.25;;;28.80;96.70;;;;;;4965782;28;20047;-72
2023/05/15 15:28:09;;;;;;;0.68;0.20;;;29.20;96.70;;;;;;4951277;28;20042;-71
2023/05/15 15:30:38;;;;;;;0.35;0.10;;;29.70;96.70;;;;;;4973458;28;20050;-71
2023/05/15 15:33:07;;;;;;;0.20;0.20;;;30.00;96.70;;;;;;4981908;28;20050;-70
2023/05/15 15:35:35;;;;;;;0.50;0.10;;;30.00;96.70;;;;;;4953979;28;20047;-70
2023/05/15 15:38:04;;;;;;;1.23;0.17;;;30.40;96.70;;;;;;4982334;28;20692;-70
2023/05/15 15:40:34;;;;;;;2.45;0.30;;;30.70;96.70;;;;;;4968958;28;20042;-71
2023/05/15 15:43:03;;;;;;;0.80;0.20;;;30.70;96.70;;;;;;4981267;28;20077;-71
2023/05/15 15:45:32;;;;;;;0.25;0.03;;;30.40;96.70;;;;;;4969919;28;20121;-70
2023/05/15 15:48:00;;;;;;;1.95;0.30;;;30.30;96.70;;;;;;4975239;28;20054;-71
2023/05/15 15:50:29;;;;;;;0.30;0.15;;;30.80;96.70;;;;;;4947661;28;20043;-70
2023/05/15 15:52:58;;;;;;;0.93;0.20;;;31.00;96.70;;;;;;4947574;28;20053;-71
2023/05/15 15:55:26;;;;;;;0.52;0.30;;;31.20;96.70;;;;;;4946580;28;20050;-72
2023/05/15 15:57:56;;;;;;;0.30;0.10;;;30.60;96.70;;;;;;4964444;28;20133;-71
2023/05/15 16:00:25;;;;;;;1.13;0.20;;;30.00;96.70;;;;;;4968182;28;20050;-70
2023/05/15 16:02:54;;;;;;;1.67;0.20;;;29.60;96.70;;;;;;4959077;28;20129;-70
2023/05/15 16:05:22;;;;;;;1.00;0.20;;;30.10;96.70;;;;;;4973249;28;20493;-71
2023/05/15 16:07:51;;;;;;;0.38;0.20;;;30.90;96.70;;;;;;4952824;28;20128;-71
2023/05/15 16:10:20;;;;;;;1.33;0.20;;;31.50;96.70;;;;;;4966694;28;20059;-71
2023/05/15 16:12:49;;;;;;;1.80;0.38;;;32.30;96.70;;;;;;4944248;28;20126;-70
2023/05/15 16:15:20;;;;;;;1.10;0.30;;;32.60;96.70;;;;;;4931965;28;20057;-70
2023/05/15 16:17:52;;;;;;;0.30;0.30;;;32.80;96.70;;;;;;4965074;28;20509;-70
2023/05/15 16:20:22;;;;;;;0.75;0.40;;;33.10;96.70;;;;;;4973178;28;20059;-71
2023/05/15 16:22:51;;;;;;;1.08;0.30;;;33.80;96.00;;;;;;4973409;28;20052;-70
2023/05/15 16:25:20;;;;;;;0.65;0.30;;;34.00;95.20;;;;;;4967462;28;20500;-71
2023/05/15 16:27:49;;;;;;;1.17;0.40;;;33.70;95.10;;;;;;4972015;28;20053;-71
2023/05/15 16:30:20;;;;;;;5.30;0.40;;;33.70;94.40;;;;;;4953285;28;20226;-71
2023/05/15 16:32:49;;;;;;;1.20;0.20;;;33.60;95.40;;;;;;4976580;28;20179;-70
2023/05/15 16:35:20;;;;;;;0.55;0.40;;;33.80;95.70;;;;;;4962915;28;20511;-71
2023/05/15 16:37:49;;;;;;;3.13;0.40;;;33.90;94.50;;;;;;4973355;28;20057;-70
2023/05/15 16:40:17;;;;;;;2.20;0.40;;;34.00;94.60;;;;;;4971513;28;20047;-70
2023/05/15 16:42:45;;;;;;;1.63;0.30;;;34.00;95.10;;;;;;4977268;28;20047;-70
2023/05/15 16:45:13;;;;;;;1.60;0.30;;;34.50;93.50;;;;;;4982678;28;20038;-70
2023/05/15 16:47:43;;;;;;;0.30;0.30;;;32.70;95.50;;;;;;4965898;28;20043;-69
2023/05/15 16:50:11;;;;;;;1.23;0.30;;;31.90;96.70;;;;;;4971770;28;20137;-71
2023/05/15 16:52:44;;;;;;;0.88;0.30;;;32.30;96.10;;;;;;4938669;28;20054;-71
2023/05/15 16:55:14;;;;;;;0.30;0.20;;;32.40;96.20;;;;;;4963266;28;20047;-71
2023/05/15 16:57:42;;;;;;;0.47;0.20;;;32.30;96.70;;;;;;4963169;28;20049;-70
2023/05/15 17:00:12;;;;;;;1.65;0.45;;;31.60;96.70;;;;;;4969129;28;20351;-70
2023/05/15 17:02:42;;;;;;;0.30;0.13;;;31.20;96.70;;;;;;4971623;28;20126;-70
2023/05/15 17:05:12;;;;;;;1.80;0.20;;;31.00;96.70;;;;;;4958847;28;20067;-70
2023/05/15 17:07:42;;;;;;;0.50;0.20;;;31.00;96.70;;;;;;4975142;28;20046;-70